sensor_id;sensor_type;location;lat;lon;timestamp;pressure;altitude;pressure_sealevel;temperature;humidity
45247;BME280;31529;51.158;7.354;2022-09-09T00:00:31;97297.31;;;18.14;83.76
45247;BME280;31529;51.158;7.354;2022-09-09T00:01:08;97299.66;;;18.16;83.70
45247;BME280;31529;51.158;7.354;2022-09-09T00:01:47;97300.44;;;18.16;83.27
45247;BME280;31529;51.158;7.354;2022-09-09T00:02:33;97302.38;;;18.16;83.30
45247;BME280;31529;51.158;7.354;2022-09-09T00:03:45;97300.88;;;18.18;83.54
45247;BME280;31529;51.158;7.354;2022-09-09T00:04:28;97301.66;;;18.19;83.17
45247;BME280;31529;51.158;7.354;2022-09-09T00:07:48;97295.47;;;18.18;83.43
45247;BME280;31529;51.158;7.354;2022-09-09T00:08:25;97292.00;;;18.18;82.85
45247;BME280;31529;51.158;7.354;2022-09-09T00:09:15;97298.09;;;18.14;82.87
45247;BME280;31529;51.158;7.354;2022-09-09T00:09:50;97296.59;;;18.17;83.31
45247;BME280;31529;51.158;7.354;2022-09-09T00:10:41;97299.56;;;18.12;82.56
45247;BME280;31529;51.158;7.354;2022-09-09T00:11:16;97300.78;;;18.14;82.97
45247;BME280;31529;51.158;7.354;2022-09-09T00:11:58;97307.75;;;18.16;83.00
45247;BME280;31529;51.158;7.354;2022-09-09T00:13:54;97305.41;;;18.14;82.91
45247;BME280;31529;51.158;7.354;2022-09-09T00:15:38;97303.47;;;18.14;83.71
45247;BME280;31529;51.158;7.354;2022-09-09T00:16:20;97297.22;;;18.10;83.41
45247;BME280;31529;51.158;7.354;2022-09-09T00:16:55;97301.03;;;18.09;83.19
45247;BME280;31529;51.158;7.354;2022-09-09T00:17:36;97299.47;;;18.08;83.60
45247;BME280;31529;51.158;7.354;2022-09-09T00:18:49;97299.56;;;18.12;83.29
45247;BME280;31529;51.158;7.354;2022-09-09T00:19:33;97303.81;;;18.13;83.77
45247;BME280;31529;51.158;7.354;2022-09-09T00:21:03;97299.56;;;18.12;83.60
45247;BME280;31529;51.158;7.354;2022-09-09T00:21:39;97296.88;;;18.12;83.50
45247;BME280;31529;51.158;7.354;2022-09-09T00:22:19;97289.56;;;18.12;83.13
45247;BME280;31529;51.158;7.354;2022-09-09T00:23:35;97288.78;;;18.12;82.83
45247;BME280;31529;51.158;7.354;2022-09-09T00:24:18;97294.94;;;18.12;82.68
45247;BME280;31529;51.158;7.354;2022-09-09T00:25:14;97287.97;;;18.11;82.81
45247;BME280;31529;51.158;7.354;2022-09-09T00:27:24;97292.59;;;18.11;82.31
45247;BME280;31529;51.158;7.354;2022-09-09T00:28:02;97287.88;;;18.08;82.24
45247;BME280;31529;51.158;7.354;2022-09-09T00:28:40;97289.47;;;18.09;82.39
45247;BME280;31529;51.158;7.354;2022-09-09T00:30:22;97279.72;;;18.04;82.80
45247;BME280;31529;51.158;7.354;2022-09-09T00:30:59;97281.97;;;18.02;82.34
45247;BME280;31529;51.158;7.354;2022-09-09T00:31:40;97280.75;;;18.00;82.90
45247;BME280;31529;51.158;7.354;2022-09-09T00:32:12;97286.16;;;18.00;82.71
45247;BME280;31529;51.158;7.354;2022-09-09T00:32:47;97286.91;;;18.00;83.30
45247;BME280;31529;51.158;7.354;2022-09-09T00:33:20;97283.44;;;18.00;83.49
45247;BME280;31529;51.158;7.354;2022-09-09T00:33:55;97282.31;;;18.01;83.25
45247;BME280;31529;51.158;7.354;2022-09-09T00:34:33;97284.59;;;17.99;82.85
45247;BME280;31529;51.158;7.354;2022-09-09T00:35:27;97289.63;;;18.00;82.76
45247;BME280;31529;51.158;7.354;2022-09-09T00:35:57;97280.31;;;17.98;82.71
45247;BME280;31529;51.158;7.354;2022-09-09T00:36:28;97277.63;;;17.98;82.70
45247;BME280;31529;51.158;7.354;2022-09-09T00:37:04;97277.63;;;17.98;82.53
45247;BME280;31529;51.158;7.354;2022-09-09T00:37:35;97279.53;;;17.97;83.01
45247;BME280;31529;51.158;7.354;2022-09-09T00:38:23;97276.06;;;17.97;82.28
45247;BME280;31529;51.158;7.354;2022-09-09T00:39:00;97279.88;;;17.95;82.08
45247;BME280;31529;51.158;7.354;2022-09-09T00:39:34;97275.16;;;17.92;82.27
45247;BME280;31529;51.158;7.354;2022-09-09T00:42:38;97275.06;;;17.89;82.99
45247;BME280;31529;51.158;7.354;2022-09-09T00:43:55;97279.69;;;17.88;83.16
45247;BME280;31529;51.158;7.354;2022-09-09T00:44:32;97278.16;;;17.87;82.54
45247;BME280;31529;51.158;7.354;2022-09-09T00:47:09;97274.56;;;17.83;82.92
45247;BME280;31529;51.158;7.354;2022-09-09T00:48:18;97274.22;;;17.85;82.63
45247;BME280;31529;51.158;7.354;2022-09-09T00:49:39;97272.63;;;17.84;83.39
45247;BME280;31529;51.158;7.354;2022-09-09T00:51:44;97272.19;;;17.82;83.02
45247;BME280;31529;51.158;7.354;2022-09-09T00:52:51;97180.59;;;17.25;82.79
45247;BME280;31529;51.158;7.354;2022-09-09T00:54:40;97268.63;;;17.78;83.14
45247;BME280;31529;51.158;7.354;2022-09-09T00:56:00;97273.22;;;17.77;83.53
45247;BME280;31529;51.158;7.354;2022-09-09T00:56:47;97269.41;;;17.78;83.42
45247;BME280;31529;51.158;7.354;2022-09-09T00:57:27;97271.66;;;17.76;83.24
45247;BME280;31529;51.158;7.354;2022-09-09T00:58:00;97266.28;;;17.76;82.98
45247;BME280;31529;51.158;7.354;2022-09-09T00:58:31;97274.03;;;17.78;82.77
45247;BME280;31529;51.158;7.354;2022-09-09T00:59:07;97271.66;;;17.76;82.71
45247;BME280;31529;51.158;7.354;2022-09-09T00:59:51;97271.66;;;17.76;83.10
45247;BME280;31529;51.158;7.354;2022-09-09T01:00:46;97278.19;;;17.75;83.13
45247;BME280;31529;51.158;7.354;2022-09-09T01:01:23;97265.41;;;17.72;83.67
45247;BME280;31529;51.158;7.354;2022-09-09T01:01:54;97272.34;;;17.73;83.74
45247;BME280;31529;51.158;7.354;2022-09-09T01:02:27;97275.47;;;17.75;83.82
45247;BME280;31529;51.158;7.354;2022-09-09T01:03:56;97274.38;;;17.76;83.71
45247;BME280;31529;51.158;7.354;2022-09-09T01:04:34;97276.25;;;17.75;83.39
45247;BME280;31529;51.158;7.354;2022-09-09T01:05:10;97276.25;;;17.75;83.79
45247;BME280;31529;51.158;7.354;2022-09-09T01:06:36;97278.63;;;17.77;83.20
45247;BME280;31529;51.158;7.354;2022-09-09T01:07:12;97278.63;;;17.77;82.87
45247;BME280;31529;51.158;7.354;2022-09-09T01:07:48;97277.06;;;17.76;83.09
45247;BME280;31529;51.158;7.354;2022-09-09T01:09:27;97278.63;;;17.77;83.20
45247;BME280;31529;51.158;7.354;2022-09-09T01:10:11;97281.31;;;17.77;83.58
45247;BME280;31529;51.158;7.354;2022-09-09T01:10:56;97277.06;;;17.76;83.15
45247;BME280;31529;51.158;7.354;2022-09-09T01:11:35;97275.47;;;17.75;83.38
45247;BME280;31529;51.158;7.354;2022-09-09T01:13:22;97268.44;;;17.70;83.05
45247;BME280;31529;51.158;7.354;2022-09-09T01:15:11;97270.00;;;17.71;83.10
45247;BME280;31529;51.158;7.354;2022-09-09T01:15:48;97270.00;;;17.71;82.58
45247;BME280;31529;51.158;7.354;2022-09-09T01:16:21;97270.78;;;17.72;82.99
45247;BME280;31529;51.158;7.354;2022-09-09T01:16:55;97275.81;;;17.73;82.83
45247;BME280;31529;51.158;7.354;2022-09-09T01:17:34;97275.03;;;17.73;83.28
45247;BME280;31529;51.158;7.354;2022-09-09T01:18:17;97268.00;;;17.68;83.09
45247;BME280;31529;51.158;7.354;2022-09-09T01:18:52;97273.03;;;17.70;82.58
45247;BME280;31529;51.158;7.354;2022-09-09T01:21:05;97271.47;;;17.69;82.82
45247;BME280;31529;51.158;7.354;2022-09-09T01:22:01;97267.63;;;17.70;83.47
45247;BME280;31529;51.158;7.354;2022-09-09T01:23:17;97273.03;;;17.70;83.39
45247;BME280;31529;51.158;7.354;2022-09-09T01:26:10;97263.03;;;17.70;82.82
45247;BME280;31529;51.158;7.354;2022-09-09T01:26:58;97273.50;;;17.72;83.05
45247;BME280;31529;51.158;7.354;2022-09-09T01:27:33;97270.00;;;17.71;82.96
45247;BME280;31529;51.158;7.354;2022-09-09T01:28:08;97266.53;;;17.71;83.07
45247;BME280;31529;51.158;7.354;2022-09-09T01:28:44;97271.56;;;17.72;83.00
45247;BME280;31529;51.158;7.354;2022-09-09T01:29:18;97272.34;;;17.73;82.68
45247;BME280;31529;51.158;7.354;2022-09-09T01:29:51;97270.78;;;17.72;82.59
45247;BME280;31529;51.158;7.354;2022-09-09T01:30:23;97272.69;;;17.71;82.49
45247;BME280;31529;51.158;7.354;2022-09-09T01:30:54;97270.78;;;17.72;82.75
45247;BME280;31529;51.158;7.354;2022-09-09T01:31:28;97269.22;;;17.71;82.96
45247;BME280;31529;51.158;7.354;2022-09-09T01:32:37;97272.69;;;17.71;83.38
45247;BME280;31529;51.158;7.354;2022-09-09T01:33:13;97274.72;;;17.74;82.64
45247;BME280;31529;51.158;7.354;2022-09-09T01:33:46;97273.50;;;17.72;82.79
45247;BME280;31529;51.158;7.354;2022-09-09T01:34:18;97275.47;;;17.75;83.23
45247;BME280;31529;51.158;7.354;2022-09-09T01:34:49;97270.09;;;17.75;82.68
45247;BME280;31529;51.158;7.354;2022-09-09T01:36:09;97269.66;;;17.73;83.36
45247;BME280;31529;51.158;7.354;2022-09-09T01:36:57;97269.31;;;17.74;83.52
45247;BME280;31529;51.158;7.354;2022-09-09T01:37:33;97263.91;;;17.74;83.21
45247;BME280;31529;51.158;7.354;2022-09-09T01:38:04;97266.28;;;17.76;83.01
45247;BME280;31529;51.158;7.354;2022-09-09T01:38:36;97273.22;;;17.77;83.04
45247;BME280;31529;51.158;7.354;2022-09-09T01:39:07;97271.31;;;17.78;83.20
45247;BME280;31529;51.158;7.354;2022-09-09T01:39:39;97270.97;;;17.79;83.14
45247;BME280;31529;51.158;7.354;2022-09-09T01:40:13;97275.22;;;17.80;82.93
45247;BME280;31529;51.158;7.354;2022-09-09T01:40:44;97269.84;;;17.80;83.18
45247;BME280;31529;51.158;7.354;2022-09-09T01:41:15;97264.09;;;17.82;82.56
45247;BME280;31529;51.158;7.354;2022-09-09T01:41:46;97272.19;;;17.82;82.95
45247;BME280;31529;51.158;7.354;2022-09-09T01:42:17;97270.28;;;17.82;82.82
45247;BME280;31529;51.158;7.354;2022-09-09T01:42:48;97273.44;;;17.84;82.81
45247;BME280;31529;51.158;7.354;2022-09-09T01:43:22;97267.22;;;17.84;82.48
45247;BME280;31529;51.158;7.354;2022-09-09T01:43:55;97274.22;;;17.85;82.41
45247;BME280;31529;51.158;7.354;2022-09-09T01:44:27;97270.41;;;17.86;82.64
45247;BME280;31529;51.158;7.354;2022-09-09T01:45:00;97275.00;;;17.85;82.61
45247;BME280;31529;51.158;7.354;2022-09-09T01:45:31;97275.00;;;17.85;82.35
45247;BME280;31529;51.158;7.354;2022-09-09T01:46:03;97280.41;;;17.85;82.49
45247;BME280;31529;51.158;7.354;2022-09-09T01:46:34;97273.44;;;17.84;82.32
45247;BME280;31529;51.158;7.354;2022-09-09T01:47:05;97277.16;;;17.80;82.25
45247;BME280;31529;51.158;7.354;2022-09-09T01:47:37;97279.06;;;17.79;82.85
45247;BME280;31529;51.158;7.354;2022-09-09T01:48:08;97283.00;;;17.82;82.03
45247;BME280;31529;51.158;7.354;2022-09-09T01:48:40;97280.63;;;17.80;82.77
45247;BME280;31529;51.158;7.354;2022-09-09T01:49:13;97274.09;;;17.81;81.89
45247;BME280;31529;51.158;7.354;2022-09-09T01:49:44;97279.84;;;17.80;82.44
45247;BME280;31529;51.158;7.354;2022-09-09T01:50:16;97270.19;;;17.79;82.46
45247;BME280;31529;51.158;7.354;2022-09-09T01:50:48;97281.75;;;17.79;82.30
45247;BME280;31529;51.158;7.354;2022-09-09T01:51:19;97279.06;;;17.79;82.45
45247;BME280;31529;51.158;7.354;2022-09-09T01:51:52;97277.50;;;17.78;82.20
45247;BME280;31529;51.158;7.354;2022-09-09T01:52:25;97277.06;;;17.76;82.11
45247;BME280;31529;51.158;7.354;2022-09-09T01:52:57;97282.47;;;17.76;82.92
45247;BME280;31529;51.158;7.354;2022-09-09T01:53:30;97188.16;;;17.20;82.84
45247;BME280;31529;51.158;7.354;2022-09-09T01:54:01;97279.75;;;17.76;82.56
45247;BME280;31529;51.158;7.354;2022-09-09T01:54:33;97270.53;;;17.77;82.45
45247;BME280;31529;51.158;7.354;2022-09-09T01:55:05;97273.22;;;17.77;82.96
45247;BME280;31529;51.158;7.354;2022-09-09T01:55:38;97278.19;;;17.75;82.45
45247;BME280;31529;51.158;7.354;2022-09-09T01:57:08;97271.31;;;17.78;82.80
45247;BME280;31529;51.158;7.354;2022-09-09T01:57:50;97265.94;;;17.78;82.48
45247;BME280;31529;51.158;7.354;2022-09-09T01:59:28;97271.66;;;17.76;82.24
45247;BME280;31529;51.158;7.354;2022-09-09T02:00:10;97275.38;;;17.71;82.59
45247;BME280;31529;51.158;7.354;2022-09-09T02:00:45;97275.38;;;17.71;82.62
45247;BME280;31529;51.158;7.354;2022-09-09T02:01:35;97270.78;;;17.72;82.47
45247;BME280;31529;51.158;7.354;2022-09-09T02:03:47;97279.22;;;17.70;82.43
45247;BME280;31529;51.158;7.354;2022-09-09T02:04:42;97275.28;;;17.68;82.37
45247;BME280;31529;51.158;7.354;2022-09-09T02:07:08;97270.19;;;17.63;82.65
45247;BME280;31529;51.158;7.354;2022-09-09T02:07:59;97272.88;;;17.63;82.44
45247;BME280;31529;51.158;7.354;2022-09-09T02:08:50;97274.69;;;17.59;82.81
45247;BME280;31529;51.158;7.354;2022-09-09T02:09:24;97269.31;;;17.59;83.09
45247;BME280;31529;51.158;7.354;2022-09-09T02:10:30;97270.41;;;17.58;83.33
45247;BME280;31529;51.158;7.354;2022-09-09T02:11:02;97273.03;;;17.54;83.26
45247;BME280;31529;51.158;7.354;2022-09-09T02:11:37;97278.41;;;17.54;83.39
45247;BME280;31529;51.158;7.354;2022-09-09T02:12:10;97274.94;;;17.53;82.97
45247;BME280;31529;51.158;7.354;2022-09-09T02:12:47;97277.19;;;17.51;82.91
45247;BME280;31529;51.158;7.354;2022-09-09T02:13:21;97272.94;;;17.50;83.08
45247;BME280;31529;51.158;7.354;2022-09-09T02:13:54;97270.22;;;17.50;82.90
45247;BME280;31529;51.158;7.354;2022-09-09T02:14:30;97275.63;;;17.50;83.20
45247;BME280;31529;51.158;7.354;2022-09-09T02:15:11;97270.56;;;17.49;83.47
45247;BME280;31529;51.158;7.354;2022-09-09T02:16:23;97268.13;;;17.44;84.10
45247;BME280;31529;51.158;7.354;2022-09-09T02:17:03;97283.44;;;17.40;84.13
45247;BME280;31529;51.158;7.354;2022-09-09T02:17:40;97269.97;;;17.40;84.18
45247;BME280;31529;51.158;7.354;2022-09-09T02:18:13;97278.41;;;17.38;84.54
45247;BME280;31529;51.158;7.354;2022-09-09T02:18:56;97275.25;;;17.36;83.97
45247;BME280;31529;51.158;7.354;2022-09-09T02:19:35;97276.81;;;17.37;84.19
45247;BME280;31529;51.158;7.354;2022-09-09T02:20:11;97276.03;;;17.36;84.07
45247;BME280;31529;51.158;7.354;2022-09-09T02:20:44;97279.84;;;17.35;84.36
45247;BME280;31529;51.158;7.354;2022-09-09T02:21:17;97275.25;;;17.36;84.36
45247;BME280;31529;51.158;7.354;2022-09-09T02:21:49;97277.84;;;17.32;84.13
45247;BME280;31529;51.158;7.354;2022-09-09T02:22:22;97278.19;;;17.31;84.66
45247;BME280;31529;51.158;7.354;2022-09-09T02:22:56;97277.06;;;17.32;84.33
45247;BME280;31529;51.158;7.354;2022-09-09T02:23:29;97274.34;;;17.32;84.72
45247;BME280;31529;51.158;7.354;2022-09-09T02:24:04;97271.66;;;17.32;84.44
45247;BME280;31529;51.158;7.354;2022-09-09T02:24:38;97268.19;;;17.31;84.74
45247;BME280;31529;51.158;7.354;2022-09-09T02:25:11;97275.50;;;17.31;84.67
45247;BME280;31529;51.158;7.354;2022-09-09T02:25:46;97278.88;;;17.28;85.11
45247;BME280;31529;51.158;7.354;2022-09-09T02:26:19;97278.88;;;17.28;85.20
45247;BME280;31529;51.158;7.354;2022-09-09T02:26:54;97272.69;;;17.27;84.98
45247;BME280;31529;51.158;7.354;2022-09-09T02:27:28;97276.50;;;17.26;85.01
45247;BME280;31529;51.158;7.354;2022-09-09T02:27:59;97278.78;;;17.24;85.02
45247;BME280;31529;51.158;7.354;2022-09-09T02:28:33;97275.28;;;17.24;85.41
45247;BME280;31529;51.158;7.354;2022-09-09T02:29:20;97278.78;;;17.24;85.11
45247;BME280;31529;51.158;7.354;2022-09-09T02:29:56;97276.88;;;17.25;85.23
45247;BME280;31529;51.158;7.354;2022-09-09T02:30:32;97273.75;;;17.23;85.44
45247;BME280;31529;51.158;7.354;2022-09-09T02:31:05;97276.44;;;17.23;85.61
45247;BME280;31529;51.158;7.354;2022-09-09T02:31:37;97273.31;;;17.21;85.18
45247;BME280;31529;51.158;7.354;2022-09-09T02:32:17;97273.75;;;17.23;85.32
45247;BME280;31529;51.158;7.354;2022-09-09T02:32:53;97279.13;;;17.23;85.70
45247;BME280;31529;51.158;7.354;2022-09-09T02:33:32;97279.47;;;17.21;85.78
45247;BME280;31529;51.158;7.354;2022-09-09T02:34:07;97277.56;;;17.22;85.47
45247;BME280;31529;51.158;7.354;2022-09-09T02:34:43;97274.75;;;17.18;85.60
45247;BME280;31529;51.158;7.354;2022-09-09T02:35:19;97274.66;;;17.14;85.93
45247;BME280;31529;51.158;7.354;2022-09-09T02:35:54;97193.06;;;16.61;85.76
45247;BME280;31529;51.158;7.354;2022-09-09T02:36:32;97273.97;;;17.17;86.00
45247;BME280;31529;51.158;7.354;2022-09-09T02:37:06;97274.66;;;17.14;85.77
45247;BME280;31529;51.158;7.354;2022-09-09T02:37:41;97271.53;;;17.12;86.10
45247;BME280;31529;51.158;7.354;2022-09-09T02:38:16;97276.03;;;17.08;85.89
45247;BME280;31529;51.158;7.354;2022-09-09T02:38:50;97279.16;;;17.10;85.87
45247;BME280;31529;51.158;7.354;2022-09-09T02:39:24;97274.66;;;17.14;85.73
45247;BME280;31529;51.158;7.354;2022-09-09T02:39:55;97272.66;;;17.11;85.97
45247;BME280;31529;51.158;7.354;2022-09-09T02:40:26;97270.75;;;17.12;86.37
45247;BME280;31529;51.158;7.354;2022-09-09T02:40:57;97272.28;;;17.13;86.29
45247;BME280;31529;51.158;7.354;2022-09-09T02:41:33;97276.91;;;17.12;86.05
45247;BME280;31529;51.158;7.354;2022-09-09T02:42:05;97276.25;;;17.15;86.31
45247;BME280;31529;51.158;7.354;2022-09-09T02:42:42;97273.88;;;17.14;85.75
45247;BME280;31529;51.158;7.354;2022-09-09T02:43:15;97266.91;;;17.13;86.45
45247;BME280;31529;51.158;7.354;2022-09-09T02:43:49;97269.38;;;17.18;86.12
45247;BME280;31529;51.158;7.354;2022-09-09T02:44:20;97274.41;;;17.20;85.74
45247;BME280;31529;51.158;7.354;2022-09-09T02:44:51;97269.47;;;17.22;85.47
45247;BME280;31529;51.158;7.354;2022-09-09T02:45:23;97271.81;;;17.23;85.73
45247;BME280;31529;51.158;7.354;2022-09-09T02:46:02;97274.28;;;17.28;85.39
45247;BME280;31529;51.158;7.354;2022-09-09T02:47:38;97271.94;;;17.27;85.49
45247;BME280;31529;51.158;7.354;2022-09-09T02:48:14;97267.66;;;17.26;85.76
45247;BME280;31529;51.158;7.354;2022-09-09T02:48:52;97272.69;;;17.27;85.46
45247;BME280;31529;51.158;7.354;2022-09-09T02:50:12;97270.00;;;17.27;85.27
45247;BME280;31529;51.158;7.354;2022-09-09T02:50:56;97272.69;;;17.27;86.04
45247;BME280;31529;51.158;7.354;2022-09-09T02:51:40;97264.28;;;17.29;86.17
45247;BME280;31529;51.158;7.354;2022-09-09T02:52:32;97273.91;;;17.30;86.37
45247;BME280;31529;51.158;7.354;2022-09-09T02:53:24;97273.13;;;17.29;86.33
45247;BME280;31529;51.158;7.354;2022-09-09T02:54:47;97275.84;;;17.29;86.47
45247;BME280;31529;51.158;7.354;2022-09-09T02:55:25;97275.84;;;17.29;86.02
45247;BME280;31529;51.158;7.354;2022-09-09T02:56:20;97270.44;;;17.29;86.29
45247;BME280;31529;51.158;7.354;2022-09-09T02:56:54;97271.50;;;17.25;86.68
45247;BME280;31529;51.158;7.354;2022-09-09T02:57:26;97276.50;;;17.26;86.97
45247;BME280;31529;51.158;7.354;2022-09-09T02:58:01;97283.16;;;17.29;86.81
45247;BME280;31529;51.158;7.354;2022-09-09T02:58:36;97280.44;;;17.29;86.42
45247;BME280;31529;51.158;7.354;2022-09-09T02:59:07;97277.06;;;17.32;86.77
45247;BME280;31529;51.158;7.354;2022-09-09T02:59:39;97275.16;;;17.32;86.80
45247;BME280;31529;51.158;7.354;2022-09-09T03:00:11;97277.84;;;17.32;86.35
45247;BME280;31529;51.158;7.354;2022-09-09T03:00:42;97276.38;;;17.35;85.92
45247;BME280;31529;51.158;7.354;2022-09-09T03:01:16;97274.13;;;17.37;85.94
45247;BME280;31529;51.158;7.354;2022-09-09T03:01:47;97144.66;;;16.49;86.35
45247;BME280;31529;51.158;7.354;2022-09-09T03:02:19;97278.06;;;17.40;86.30
45247;BME280;31529;51.158;7.354;2022-09-09T03:02:50;97280.03;;;17.43;86.15
45247;BME280;31529;51.158;7.354;2022-09-09T03:03:21;97268.47;;;17.42;86.20
45247;BME280;31529;51.158;7.354;2022-09-09T03:03:52;97277.69;;;17.41;86.39
45247;BME280;31529;51.158;7.354;2022-09-09T03:04:25;97274.66;;;17.43;86.19
45247;BME280;31529;51.158;7.354;2022-09-09T03:04:56;97275.00;;;17.41;85.97
45247;BME280;31529;51.158;7.354;2022-09-09T03:05:28;97277.00;;;17.44;85.89
45247;BME280;31529;51.158;7.354;2022-09-09T03:05:59;97272.06;;;17.46;85.67
45247;BME280;31529;51.158;7.354;2022-09-09T03:06:30;97269.78;;;17.48;86.18
45247;BME280;31529;51.158;7.354;2022-09-09T03:07:01;97268.69;;;17.49;85.64
45247;BME280;31529;51.158;7.354;2022-09-09T03:07:34;97275.97;;;17.49;85.99
45247;BME280;31529;51.158;7.354;2022-09-09T03:08:05;97274.41;;;17.48;85.60
45247;BME280;31529;51.158;7.354;2022-09-09T03:08:37;97270.22;;;17.50;85.79
45247;BME280;31529;51.158;7.354;2022-09-09T03:09:08;97272.69;;;17.55;85.73
45247;BME280;31529;51.158;7.354;2022-09-09T03:09:41;97269.97;;;17.55;85.80
45247;BME280;31529;51.158;7.354;2022-09-09T03:10:12;97268.06;;;17.56;85.26
45247;BME280;31529;51.158;7.354;2022-09-09T03:10:44;97270.09;;;17.59;85.45
45247;BME280;31529;51.158;7.354;2022-09-09T03:11:16;97269.31;;;17.59;85.13
45247;BME280;31529;51.158;7.354;2022-09-09T03:11:47;97275.56;;;17.63;84.80
45247;BME280;31529;51.158;7.354;2022-09-09T03:12:20;97276.00;;;17.65;85.43
45247;BME280;31529;51.158;7.354;2022-09-09T03:12:51;97270.59;;;17.65;85.34
45247;BME280;31529;51.158;7.354;2022-09-09T03:13:22;97273.31;;;17.65;84.71
45247;BME280;31529;51.158;7.354;2022-09-09T03:13:53;97277.56;;;17.66;84.47
45247;BME280;31529;51.158;7.354;2022-09-09T03:14:26;97269.47;;;17.66;84.45
45247;BME280;31529;51.158;7.354;2022-09-09T03:14:57;97271.38;;;17.65;84.53
45247;BME280;31529;51.158;7.354;2022-09-09T03:15:29;97273.75;;;17.67;85.23
45247;BME280;31529;51.158;7.354;2022-09-09T03:16:01;97274.53;;;17.67;84.85
45247;BME280;31529;51.158;7.354;2022-09-09T03:16:34;97276.09;;;17.68;84.18
45247;BME280;31529;51.158;7.354;2022-09-09T03:17:05;97276.88;;;17.69;84.67
45247;BME280;31529;51.158;7.354;2022-09-09T03:17:36;97273.84;;;17.70;84.48
45247;BME280;31529;51.158;7.354;2022-09-09T03:18:08;97274.63;;;17.71;84.46
45247;BME280;31529;51.158;7.354;2022-09-09T03:18:39;97274.63;;;17.71;84.42
45247;BME280;31529;51.158;7.354;2022-09-09T03:19:10;97272.34;;;17.73;84.10
45247;BME280;31529;51.158;7.354;2022-09-09T03:19:41;97200.25;;;17.26;84.28
45247;BME280;31529;51.158;7.354;2022-09-09T03:20:12;97270.09;;;17.75;84.57
45247;BME280;31529;51.158;7.354;2022-09-09T03:20:43;97274.38;;;17.76;84.44
45247;BME280;31529;51.158;7.354;2022-09-09T03:21:19;97277.06;;;17.76;84.11
45247;BME280;31529;51.158;7.354;2022-09-09T03:21:50;97271.66;;;17.76;84.20
45247;BME280;31529;51.158;7.354;2022-09-09T03:22:21;97271.66;;;17.76;83.71
45247;BME280;31529;51.158;7.354;2022-09-09T03:22:52;97267.03;;;17.76;84.38
45247;BME280;31529;51.158;7.354;2022-09-09T03:23:24;97280.19;;;17.78;83.96
45247;BME280;31529;51.158;7.354;2022-09-09T03:23:55;97273.22;;;17.77;83.86
45247;BME280;31529;51.158;7.354;2022-09-09T03:24:26;97270.97;;;17.79;84.38
45247;BME280;31529;51.158;7.354;2022-09-09T03:24:57;97195.72;;;17.30;83.86
45247;BME280;31529;51.158;7.354;2022-09-09T03:25:28;97272.53;;;17.80;84.06
45247;BME280;31529;51.158;7.354;2022-09-09T03:25:59;97269.41;;;17.78;83.77
45247;BME280;31529;51.158;7.354;2022-09-09T03:26:30;97264.78;;;17.79;83.62
45247;BME280;31529;51.158;7.354;2022-09-09T03:27:02;97270.63;;;17.81;83.84
45247;BME280;31529;51.158;7.354;2022-09-09T03:27:33;97267.13;;;17.80;84.40
45247;BME280;31529;51.158;7.354;2022-09-09T03:28:04;97266.78;;;17.82;83.92
45247;BME280;31529;51.158;7.354;2022-09-09T03:28:35;97274.47;;;17.80;84.27
45247;BME280;31529;51.158;7.354;2022-09-09T03:29:07;97268.69;;;17.81;84.40
45247;BME280;31529;51.158;7.354;2022-09-09T03:29:38;97266.47;;;17.83;83.77
45247;BME280;31529;51.158;7.354;2022-09-09T03:30:09;97273.44;;;17.84;84.47
45247;BME280;31529;51.158;7.354;2022-09-09T03:30:40;97266.91;;;17.85;84.23
45247;BME280;31529;51.158;7.354;2022-09-09T03:31:11;97264.22;;;17.85;83.53
45247;BME280;31529;51.158;7.354;2022-09-09T03:31:42;97262.31;;;17.86;83.19
45247;BME280;31529;51.158;7.354;2022-09-09T03:32:14;97267.34;;;17.87;83.78
45247;BME280;31529;51.158;7.354;2022-09-09T03:32:46;97261.97;;;17.87;83.21
45247;BME280;31529;51.158;7.354;2022-09-09T03:33:17;97264.66;;;17.87;83.07
45247;BME280;31529;51.158;7.354;2022-09-09T03:33:48;97263.84;;;17.87;83.78
45247;BME280;31529;51.158;7.354;2022-09-09T03:34:19;97263.06;;;17.86;83.33
45247;BME280;31529;51.158;7.354;2022-09-09T03:34:50;97267.34;;;17.87;83.60
45247;BME280;31529;51.158;7.354;2022-09-09T03:35:21;97265.34;;;17.84;83.26
45247;BME280;31529;51.158;7.354;2022-09-09T03:35:52;97269.63;;;17.85;83.23
45247;BME280;31529;51.158;7.354;2022-09-09T03:36:24;97267.69;;;17.86;83.11
45247;BME280;31529;51.158;7.354;2022-09-09T03:36:57;97268.47;;;17.86;83.52
45247;BME280;31529;51.158;7.354;2022-09-09T03:37:28;97266.91;;;17.85;83.28
45247;BME280;31529;51.158;7.354;2022-09-09T03:37:59;97263.41;;;17.85;83.67
45247;BME280;31529;51.158;7.354;2022-09-09T03:38:31;97264.22;;;17.85;83.68
45247;BME280;31529;51.158;7.354;2022-09-09T03:39:03;97260.25;;;17.83;83.10
45247;BME280;31529;51.158;7.354;2022-09-09T03:39:34;97260.59;;;17.81;83.36
45247;BME280;31529;51.158;7.354;2022-09-09T03:40:05;97259.03;;;17.80;83.16
45247;BME280;31529;51.158;7.354;2022-09-09T03:40:37;97259.81;;;17.81;83.93
45247;BME280;31529;51.158;7.354;2022-09-09T03:41:08;97258.28;;;17.80;83.93
45247;BME280;31529;51.158;7.354;2022-09-09T03:41:39;97266.00;;;17.81;83.32
45247;BME280;31529;51.158;7.354;2022-09-09T03:42:13;97257.91;;;17.81;83.53
45247;BME280;31529;51.158;7.354;2022-09-09T03:42:48;97262.50;;;17.81;83.15
45247;BME280;31529;51.158;7.354;2022-09-09T03:43:19;97257.84;;;17.78;83.51
45247;BME280;31529;51.158;7.354;2022-09-09T03:43:51;97262.44;;;17.77;83.81
45247;BME280;31529;51.158;7.354;2022-09-09T03:44:23;97262.44;;;17.77;83.34
45247;BME280;31529;51.158;7.354;2022-09-09T03:44:54;97255.81;;;17.74;83.46
45247;BME280;31529;51.158;7.354;2022-09-09T03:45:25;97258.53;;;17.74;83.17
45247;BME280;31529;51.158;7.354;2022-09-09T03:45:56;97260.88;;;17.76;83.91
45247;BME280;31529;51.158;7.354;2022-09-09T03:46:27;97256.59;;;17.75;83.56
45247;BME280;31529;51.158;7.354;2022-09-09T03:46:58;97268.97;;;17.76;83.25